sensor_id;sensor_type;location;lat;lon;timestamp;pressure;altitude;pressure_sealevel;temperature;humidity
60854;BME280;48554;50.766;2.900;2022-08-21T00:00:48;101160.69;;;23.32;46.27
60854;BME280;48554;50.766;2.900;2022-08-21T00:03:09;101159.59;;;23.33;46.44
60854;BME280;48554;50.766;2.900;2022-08-21T00:05:31;101153.41;;;23.27;46.38
60854;BME280;48554;50.766;2.900;2022-08-21T00:07:52;101159.63;;;23.27;46.46
60854;BME280;48554;50.766;2.900;2022-08-21T00:10:13;101156.69;;;23.24;46.46
60854;BME280;48554;50.766;2.900;2022-08-21T00:12:33;101156.13;;;23.22;46.33
60854;BME280;48554;50.766;2.900;2022-08-21T00:14:53;101163.41;;;23.21;46.19
60854;BME280;48554;50.766;2.900;2022-08-21T00:17:13;101160.47;;;23.18;46.41
60854;BME280;48554;50.766;2.900;2022-08-21T00:19:34;101157.53;;;23.14;46.50
60854;BME280;48554;50.766;2.900;2022-08-21T00:21:54;101152.09;;;23.09;46.37
60854;BME280;48554;50.766;2.900;2022-08-21T00:24:15;101152.94;;;23.10;46.55
60854;BME280;48554;50.766;2.900;2022-08-21T00:26:35;101150.50;;;23.08;46.62
60854;BME280;48554;50.766;2.900;2022-08-21T00:28:55;101144.00;;;23.04;46.58
60854;BME280;48554;50.766;2.900;2022-08-21T00:31:16;101140.78;;;23.02;46.64
60854;BME280;48554;50.766;2.900;2022-08-21T00:33:37;101141.59;;;23.02;46.51
60854;BME280;48554;50.766;2.900;2022-08-21T00:35:58;101135.66;;;23.00;46.53
60854;BME280;48554;50.766;2.900;2022-08-21T00:38:18;101131.84;;;22.96;46.64
60854;BME280;48554;50.766;2.900;2022-08-21T00:40:59;101132.94;;;22.95;46.49
60854;BME280;48554;50.766;2.900;2022-08-21T00:43:26;101137.25;;;22.96;46.78
60854;BME280;48554;50.766;2.900;2022-08-21T00:45:46;101136.72;;;22.94;46.86
60854;BME280;48554;50.766;2.900;2022-08-21T00:48:07;101142.94;;;22.90;46.81
60854;BME280;48554;50.766;2.900;2022-08-21T00:50:30;101143.22;;;22.88;46.74
60854;BME280;48554;50.766;2.900;2022-08-21T00:52:52;101146.47;;;22.85;46.94
60854;BME280;48554;50.766;2.900;2022-08-21T00:55:13;101140.25;;;22.84;46.86
60854;BME280;48554;50.766;2.900;2022-08-21T00:57:38;101134.03;;;22.84;46.85
60854;BME280;48554;50.766;2.900;2022-08-21T01:00:03;101139.97;;;22.86;46.94
60854;BME280;48554;50.766;2.900;2022-08-21T01:02:24;101144.28;;;22.87;46.75
60854;BME280;48554;50.766;2.900;2022-08-21T01:04:44;101142.69;;;22.86;46.59
60854;BME280;48554;50.766;2.900;2022-08-21T01:07:05;101142.94;;;22.84;46.82
60854;BME280;48554;50.766;2.900;2022-08-21T01:09:25;101140.00;;;22.81;46.80
60854;BME280;48554;50.766;2.900;2022-08-21T01:11:46;101148.66;;;22.78;46.94
60854;BME280;48554;50.766;2.900;2022-08-21T01:14:07;101142.72;;;22.76;47.07
60854;BME280;48554;50.766;2.900;2022-08-21T01:16:28;101146.47;;;22.75;46.89
60854;BME280;48554;50.766;2.900;2022-08-21T01:18:49;101147.56;;;22.74;47.13
60854;BME280;48554;50.766;2.900;2022-08-21T01:21:13;101149.47;;;22.78;46.75
60854;BME280;48554;50.766;2.900;2022-08-21T01:23:35;101151.88;;;22.80;47.09
60854;BME280;48554;50.766;2.900;2022-08-21T01:25:56;101139.72;;;22.77;46.84
60854;BME280;48554;50.766;2.900;2022-08-21T01:28:17;101135.94;;;22.83;46.94
60854;BME280;48554;50.766;2.900;2022-08-21T01:30:39;101142.44;;;22.82;46.76
60854;BME280;48554;50.766;2.900;2022-08-21T01:33:00;101139.97;;;22.86;46.86
60854;BME280;48554;50.766;2.900;2022-08-21T01:35:21;101144.28;;;22.87;46.57
60854;BME280;48554;50.766;2.900;2022-08-21T01:37:42;101135.69;;;22.85;46.77
60854;BME280;48554;50.766;2.900;2022-08-21T01:40:04;101138.63;;;22.83;46.74
60854;BME280;48554;50.766;2.900;2022-08-21T01:42:25;101136.47;;;22.85;46.80
60854;BME280;48554;50.766;2.900;2022-08-21T01:44:46;101143.78;;;22.85;46.75
60854;BME280;48554;50.766;2.900;2022-08-21T01:47:11;101140.00;;;22.81;46.66
60854;BME280;48554;50.766;2.900;2022-08-21T01:49:33;101141.59;;;22.82;46.80
60854;BME280;48554;50.766;2.900;2022-08-21T01:51:53;101142.69;;;22.81;46.91
60854;BME280;48554;50.766;2.900;2022-08-21T01:54:14;101144.03;;;22.83;46.70
60854;BME280;48554;50.766;2.900;2022-08-21T01:56:43;101148.09;;;22.81;46.88
60854;BME280;48554;50.766;2.900;2022-08-21T01:59:04;101149.16;;;22.80;46.44
60854;BME280;48554;50.766;2.900;2022-08-21T02:01:25;101149.16;;;22.80;46.56
60854;BME280;48554;50.766;2.900;2022-08-21T02:03:45;101145.41;;;22.81;46.99
60854;BME280;48554;50.766;2.900;2022-08-21T02:06:06;101149.16;;;22.80;46.60
60854;BME280;48554;50.766;2.900;2022-08-21T02:08:28;101148.09;;;22.81;46.43
60854;BME280;48554;50.766;2.900;2022-08-21T02:10:50;101140.56;;;22.78;46.98
60854;BME280;48554;50.766;2.900;2022-08-21T02:13:10;101149.72;;;22.82;46.47
60854;BME280;48554;50.766;2.900;2022-08-21T02:15:30;101147.31;;;22.80;46.69
60854;BME280;48554;50.766;2.900;2022-08-21T02:17:53;101149.16;;;22.80;46.93
60854;BME280;48554;50.766;2.900;2022-08-21T02:20:21;101146.75;;;22.78;47.00
60854;BME280;48554;50.766;2.900;2022-08-21T02:22:42;101148.66;;;22.73;46.85
60854;BME280;48554;50.766;2.900;2022-08-21T02:25:03;101159.47;;;22.73;46.89
60854;BME280;48554;50.766;2.900;2022-08-21T02:27:25;101150.28;;;22.74;46.95
60854;BME280;48554;50.766;2.900;2022-08-21T02:29:45;101142.72;;;22.71;46.83
60854;BME280;48554;50.766;2.900;2022-08-21T02:32:05;101148.66;;;22.73;46.76
60854;BME280;48554;50.766;2.900;2022-08-21T02:34:26;101146.78;;;22.68;46.74
60854;BME280;48554;50.766;2.900;2022-08-21T02:36:46;101142.19;;;22.69;46.95
60854;BME280;48554;50.766;2.900;2022-08-21T02:39:06;101146.50;;;22.64;46.74
60854;BME280;48554;50.766;2.900;2022-08-21T02:41:26;101145.16;;;22.67;47.13
60854;BME280;48554;50.766;2.900;2022-08-21T02:43:47;101145.16;;;22.67;47.12
60854;BME280;48554;50.766;2.900;2022-08-21T02:46:09;101138.94;;;22.67;46.90
60854;BME280;48554;50.766;2.900;2022-08-21T02:48:31;101133.53;;;22.67;46.96
60854;BME280;48554;50.766;2.900;2022-08-21T02:50:55;101129.22;;;22.65;46.85
60854;BME280;48554;50.766;2.900;2022-08-21T02:53:16;101124.91;;;22.59;47.02
60854;BME280;48554;50.766;2.900;2022-08-21T02:55:37;101122.19;;;22.59;46.66
60854;BME280;48554;50.766;2.900;2022-08-21T02:57:58;101136.25;;;22.61;46.80
60854;BME280;48554;50.766;2.900;2022-08-21T03:00:20;101122.47;;;22.58;47.03
60854;BME280;48554;50.766;2.900;2022-08-21T03:02:41;101125.44;;;22.56;47.10
60854;BME280;48554;50.766;2.900;2022-08-21T03:05:02;101119.50;;;22.54;46.99
60854;BME280;48554;50.766;2.900;2022-08-21T03:07:23;101116.81;;;22.49;47.22
60854;BME280;48554;50.766;2.900;2022-08-21T03:09:43;101121.13;;;22.45;46.89
60854;BME280;48554;50.766;2.900;2022-08-21T03:12:03;101114.13;;;22.44;47.08
60854;BME280;48554;50.766;2.900;2022-08-21T03:14:24;101127.63;;;22.44;47.27
60854;BME280;48554;50.766;2.900;2022-08-21T03:16:44;101117.88;;;22.43;47.02
60854;BME280;48554;50.766;2.900;2022-08-21T03:19:04;101122.22;;;22.44;47.14
60854;BME280;48554;50.766;2.900;2022-08-21T03:21:25;101122.22;;;22.44;47.42
60854;BME280;48554;50.766;2.900;2022-08-21T03:23:45;101129.78;;;22.42;47.12
60854;BME280;48554;50.766;2.900;2022-08-21T03:26:06;101129.25;;;22.40;47.43
60854;BME280;48554;50.766;2.900;2022-08-21T03:28:27;101128.16;;;22.36;47.22
60854;BME280;48554;50.766;2.900;2022-08-21T03:30:50;101131.41;;;22.38;47.48
60854;BME280;48554;50.766;2.900;2022-08-21T03:33:11;101134.63;;;22.40;47.31
60854;BME280;48554;50.766;2.900;2022-08-21T03:35:32;101125.19;;;22.37;47.23
60854;BME280;48554;50.766;2.900;2022-08-21T03:37:52;101126.78;;;22.38;47.38
60854;BME280;48554;50.766;2.900;2022-08-21T03:40:15;101122.75;;;22.36;47.32
60854;BME280;48554;50.766;2.900;2022-08-21T03:42:36;101131.41;;;22.38;47.22
60854;BME280;48554;50.766;2.900;2022-08-21T03:44:56;101127.09;;;22.37;47.46
60854;BME280;48554;50.766;2.900;2022-08-21T03:47:16;101127.63;;;22.34;47.42
60854;BME280;48554;50.766;2.900;2022-08-21T03:49:37;101126.53;;;22.35;47.60
60854;BME280;48554;50.766;2.900;2022-08-21T03:51:57;101130.34;;;22.34;47.52
60854;BME280;48554;50.766;2.900;2022-08-21T03:54:17;101132.75;;;22.35;47.50
60854;BME280;48554;50.766;2.900;2022-08-21T03:56:38;101124.38;;;22.32;47.55
60854;BME280;48554;50.766;2.900;2022-08-21T03:58:58;101125.75;;;22.29;47.33
60854;BME280;48554;50.766;2.900;2022-08-21T04:01:18;101122.50;;;22.27;47.65
60854;BME280;48554;50.766;2.900;2022-08-21T04:03:39;101126.00;;;22.28;47.43
60854;BME280;48554;50.766;2.900;2022-08-21T04:05:59;101125.47;;;22.26;47.39
60854;BME280;48554;50.766;2.900;2022-08-21T04:08:19;101125.19;;;22.27;47.42
60854;BME280;48554;50.766;2.900;2022-08-21T04:10:44;101126.56;;;22.25;47.46
60854;BME280;48554;50.766;2.900;2022-08-21T04:13:07;101119.50;;;22.23;47.53
60854;BME280;48554;50.766;2.900;2022-08-21T04:15:28;101126.56;;;22.25;47.70
60854;BME280;48554;50.766;2.900;2022-08-21T04:17:48;101129.25;;;22.30;47.68
60854;BME280;48554;50.766;2.900;2022-08-21T04:20:08;101130.06;;;22.30;47.53
60854;BME280;48554;50.766;2.900;2022-08-21T04:22:29;101131.16;;;22.29;47.44
60854;BME280;48554;50.766;2.900;2022-08-21T04:24:49;101133.84;;;22.29;47.46
60854;BME280;48554;50.766;2.900;2022-08-21T04:27:09;101153.53;;;22.35;46.91
60854;BME280;48554;50.766;2.900;2022-08-21T04:29:29;101141.13;;;22.34;47.28
60854;BME280;48554;50.766;2.900;2022-08-21T04:31:50;101140.03;;;22.30;47.36
60854;BME280;48554;50.766;2.900;2022-08-21T04:34:10;101141.09;;;22.29;47.57
60854;BME280;48554;50.766;2.900;2022-08-21T04:36:31;101136.25;;;22.31;47.34
60854;BME280;48554;50.766;2.900;2022-08-21T04:38:51;101140.84;;;22.30;47.34
60854;BME280;48554;50.766;2.900;2022-08-21T04:41:12;101143.81;;;22.29;47.43
60854;BME280;48554;50.766;2.900;2022-08-21T04:43:33;101140.31;;;22.28;47.31
60854;BME280;48554;50.766;2.900;2022-08-21T04:45:53;101140.03;;;22.25;47.35
60854;BME280;48554;50.766;2.900;2022-08-21T04:48:16;101136.78;;;22.33;47.32
60854;BME280;48554;50.766;2.900;2022-08-21T04:53:37;101148.13;;;22.30;47.43
60854;BME280;48554;50.766;2.900;2022-08-21T04:56:02;101157.84;;;22.31;47.48
60854;BME280;48554;50.766;2.900;2022-08-21T04:58:25;101150.28;;;22.28;47.38
60854;BME280;48554;50.766;2.900;2022-08-21T05:00:47;101154.09;;;22.27;47.49
60854;BME280;48554;50.766;2.900;2022-08-21T05:03:08;101151.38;;;22.27;47.48
60854;BME280;48554;50.766;2.900;2022-08-21T05:05:29;101150.28;;;22.28;47.38
60854;BME280;48554;50.766;2.900;2022-08-21T05:07:50;101153.00;;;22.28;47.17
60854;BME280;48554;50.766;2.900;2022-08-21T05:10:10;101147.06;;;22.26;47.43
60854;BME280;48554;50.766;2.900;2022-08-21T05:12:31;101152.19;;;22.27;47.51
60854;BME280;48554;50.766;2.900;2022-08-21T05:14:51;101148.16;;;22.25;47.56
60854;BME280;48554;50.766;2.900;2022-08-21T05:17:12;101154.59;;;22.23;47.24
60854;BME280;48554;50.766;2.900;2022-08-21T05:19:32;101150.81;;;22.19;47.68
60854;BME280;48554;50.766;2.900;2022-08-21T05:21:52;101149.50;;;22.22;47.47
60854;BME280;48554;50.766;2.900;2022-08-21T05:24:13;101151.91;;;22.23;47.46
60854;BME280;48554;50.766;2.900;2022-08-21T05:26:34;101144.91;;;22.22;47.42
60854;BME280;48554;50.766;2.900;2022-08-21T05:28:55;101151.09;;;22.23;47.32
60854;BME280;48554;50.766;2.900;2022-08-21T05:31:15;101158.94;;;22.25;47.43
60854;BME280;48554;50.766;2.900;2022-08-21T05:33:35;101148.69;;;22.21;47.33
60854;BME280;48554;50.766;2.900;2022-08-21T05:35:55;101156.78;;;22.21;47.37
60854;BME280;48554;50.766;2.900;2022-08-21T05:38:16;101160.28;;;22.27;47.24
60854;BME280;48554;50.766;2.900;2022-08-21T05:40:36;101155.16;;;22.20;47.57
60854;BME280;48554;50.766;2.900;2022-08-21T05:42:57;101167.00;;;22.19;47.45
60854;BME280;48554;50.766;2.900;2022-08-21T05:45:17;101160.78;;;22.19;47.39
60854;BME280;48554;50.766;2.900;2022-08-21T05:47:38;101154.09;;;22.21;47.57
60854;BME280;48554;50.766;2.900;2022-08-21T05:49:58;101149.97;;;22.19;47.56
60854;BME280;48554;50.766;2.900;2022-08-21T05:52:20;101154.09;;;22.21;47.40
60854;BME280;48554;50.766;2.900;2022-08-21T05:54:40;101151.91;;;22.23;47.34
60854;BME280;48554;50.766;2.900;2022-08-21T05:57:00;101153.00;;;22.22;47.35
60854;BME280;48554;50.766;2.900;2022-08-21T05:59:21;101155.94;;;22.21;47.73
60854;BME280;48554;50.766;2.900;2022-08-21T06:01:41;101163.25;;;22.20;47.52
60854;BME280;48554;50.766;2.900;2022-08-21T06:04:02;101165.66;;;22.17;47.51
60854;BME280;48554;50.766;2.900;2022-08-21T06:06:22;101169.16;;;22.17;47.62
60854;BME280;48554;50.766;2.900;2022-08-21T06:08:42;101170.22;;;22.11;47.78
60854;BME280;48554;50.766;2.900;2022-08-21T06:11:04;101166.72;;;22.11;47.70
60854;BME280;48554;50.766;2.900;2022-08-21T06:13:27;101160.78;;;22.14;47.67
60854;BME280;48554;50.766;2.900;2022-08-21T06:15:47;101163.22;;;22.10;47.80
60854;BME280;48554;50.766;2.900;2022-08-21T06:18:08;101166.44;;;22.12;47.83
60854;BME280;48554;50.766;2.900;2022-08-21T06:20:29;101171.03;;;22.12;47.95
60854;BME280;48554;50.766;2.900;2022-08-21T06:22:49;101174.00;;;22.10;47.96
60854;BME280;48554;50.766;2.900;2022-08-21T06:25:10;101174.81;;;22.11;48.03
60854;BME280;48554;50.766;2.900;2022-08-21T06:27:30;101174.81;;;22.11;48.12
60854;BME280;48554;50.766;2.900;2022-08-21T06:29:50;101178.84;;;22.08;47.92
60854;BME280;48554;50.766;2.900;2022-08-21T06:32:12;101179.09;;;22.07;48.14
60854;BME280;48554;50.766;2.900;2022-08-21T06:34:36;101179.41;;;22.10;47.96
60854;BME280;48554;50.766;2.900;2022-08-21T06:36:57;101176.16;;;22.08;48.15
60854;BME280;48554;50.766;2.900;2022-08-21T06:39:17;101177.75;;;22.09;48.10
60854;BME280;48554;50.766;2.900;2022-08-21T06:41:37;101179.41;;;22.10;48.17
60854;BME280;48554;50.766;2.900;2022-08-21T06:43:58;101185.06;;;22.09;48.27
60854;BME280;48554;50.766;2.900;2022-08-21T06:46:18;101178.31;;;22.11;48.10
60854;BME280;48554;50.766;2.900;2022-08-21T06:48:38;101176.69;;;22.10;48.11
60854;BME280;48554;50.766;2.900;2022-08-21T06:50:59;101172.91;;;22.11;48.29
60854;BME280;48554;50.766;2.900;2022-08-21T06:53:20;101178.84;;;22.03;48.49
60854;BME280;48554;50.766;2.900;2022-08-21T06:55:41;101164.56;;;22.08;48.42
60854;BME280;48554;50.766;2.900;2022-08-21T06:58:04;101170.75;;;22.08;48.44
60854;BME280;48554;50.766;2.900;2022-08-21T07:00:24;101166.16;;;22.09;48.66
60854;BME280;48554;50.766;2.900;2022-08-21T07:02:44;101161.31;;;22.06;48.45
60854;BME280;48554;50.766;2.900;2022-08-21T07:05:05;101164.88;;;22.21;48.14
60854;BME280;48554;50.766;2.900;2022-08-21T07:07:25;101169.44;;;22.26;47.93
60854;BME280;48554;50.766;2.900;2022-08-21T07:09:45;101165.44;;;22.34;48.06
60854;BME280;48554;50.766;2.900;2022-08-21T07:12:06;101172.44;;;22.35;47.98
60854;BME280;48554;50.766;2.900;2022-08-21T07:14:26;101171.88;;;22.38;48.05
60854;BME280;48554;50.766;2.900;2022-08-21T07:16:48;101173.53;;;22.34;48.45
60854;BME280;48554;50.766;2.900;2022-08-21T07:19:08;101171.88;;;22.33;49.07
60854;BME280;48554;50.766;2.900;2022-08-21T07:21:28;101172.97;;;22.37;48.55
60854;BME280;48554;50.766;2.900;2022-08-21T07:23:50;101165.94;;;22.36;48.89
60854;BME280;48554;50.766;2.900;2022-08-21T07:26:12;101177.84;;;22.40;48.71
60854;BME280;48554;50.766;2.900;2022-08-21T07:28:32;101169.19;;;22.38;48.90
60854;BME280;48554;50.766;2.900;2022-08-21T07:30:55;101168.13;;;22.39;48.98
60854;BME280;48554;50.766;2.900;2022-08-21T07:33:16;101170.81;;;22.49;49.26
60854;BME280;48554;50.766;2.900;2022-08-21T07:35:36;101159.75;;;22.56;48.81
60854;BME280;48554;50.766;2.900;2022-08-21T07:37:56;101160.56;;;22.56;49.83
60854;BME280;48554;50.766;2.900;2022-08-21T07:40:17;101169.44;;;22.67;49.93
60854;BME280;48554;50.766;2.900;2022-08-21T07:42:42;101168.66;;;22.67;49.61
60854;BME280;48554;50.766;2.900;2022-08-21T07:45:03;101169.19;;;22.58;52.35
60854;BME280;48554;50.766;2.900;2022-08-21T07:47:24;101170.81;;;22.59;52.23
60854;BME280;48554;50.766;2.900;2022-08-21T07:49:44;101177.81;;;22.60;51.79
60854;BME280;48554;50.766;2.900;2022-08-21T07:52:04;101169.44;;;22.67;51.83
60854;BME280;48554;50.766;2.900;2022-08-21T07:54:25;101172.97;;;22.57;51.99
60854;BME280;48554;50.766;2.900;2022-08-21T07:56:45;101175.66;;;22.62;51.72
60854;BME280;48554;50.766;2.900;2022-08-21T07:59:05;101177.28;;;22.69;51.60
60854;BME280;48554;50.766;2.900;2022-08-21T08:01:26;101163.25;;;22.61;51.72
60854;BME280;48554;50.766;2.900;2022-08-21T08:03:46;101167.84;;;22.71;51.94
60854;BME280;48554;50.766;2.900;2022-08-21T08:06:07;101178.91;;;22.75;51.26
60854;BME280;48554;50.766;2.900;2022-08-21T08:08:27;101172.13;;;22.77;51.02
60854;BME280;48554;50.766;2.900;2022-08-21T08:10:48;101172.97;;;22.73;52.22
60854;BME280;48554;50.766;2.900;2022-08-21T08:13:08;101176.19;;;22.80;51.89
60854;BME280;48554;50.766;2.900;2022-08-21T08:15:28;101172.97;;;22.73;51.97
60854;BME280;48554;50.766;2.900;2022-08-21T08:17:48;101174.59;;;22.69;52.49
60854;BME280;48554;50.766;2.900;2022-08-21T08:20:10;101172.69;;;22.74;51.80
60854;BME280;48554;50.766;2.900;2022-08-21T08:22:31;101170.78;;;22.80;51.69
60854;BME280;48554;50.766;2.900;2022-08-21T08:24:52;101161.34;;;22.77;51.56
60854;BME280;48554;50.766;2.900;2022-08-21T08:27:12;101156.72;;;22.88;50.84
60854;BME280;48554;50.766;2.900;2022-08-21T08:29:32;101154.03;;;22.88;50.35
60854;BME280;48554;50.766;2.900;2022-08-21T08:31:53;101151.31;;;22.93;51.22
60854;BME280;48554;50.766;2.900;2022-08-21T08:34:13;101136.16;;;22.92;50.67
60854;BME280;48554;50.766;2.900;2022-08-21T08:36:35;101142.66;;;22.96;51.07
60854;BME280;48554;50.766;2.900;2022-08-21T08:38:56;101145.66;;;23.00;51.37
60854;BME280;48554;50.766;2.900;2022-08-21T08:41:19;101140.53;;;22.98;51.38
60854;BME280;48554;50.766;2.900;2022-08-21T08:43:43;101136.44;;;22.96;51.27
60854;BME280;48554;50.766;2.900;2022-08-21T08:46:09;101131.31;;;22.94;51.54
60854;BME280;48554;50.766;2.900;2022-08-21T08:48:52;101139.97;;;23.01;51.10
60854;BME280;48554;50.766;2.900;2022-08-21T08:51:18;101139.44;;;23.04;50.77
60854;BME280;48554;50.766;2.900;2022-08-21T08:54:09;101133.75;;;23.01;51.09
60854;BME280;48554;50.766;2.900;2022-08-21T08:56:32;101129.97;;;22.92;51.57
60854;BME280;48554;50.766;2.900;2022-08-21T08:58:57;101134.03;;;22.89;51.69
60854;BME280;48554;50.766;2.900;2022-08-21T09:01:19;101127.28;;;22.86;51.45
60854;BME280;48554;50.766;2.900;2022-08-21T09:03:40;101129.16;;;22.91;51.42
60854;BME280;48554;50.766;2.900;2022-08-21T09:06:11;101128.63;;;22.99;50.81
60854;BME280;48554;50.766;2.900;2022-08-21T09:08:46;101123.22;;;23.04;50.96
60854;BME280;48554;50.766;2.900;2022-08-21T09:11:29;101125.91;;;23.10;50.81
60854;BME280;48554;50.766;2.900;2022-08-21T09:21:59;101113.97;;;23.16;50.61
60854;BME280;48554;50.766;2.900;2022-08-21T09:24:41;101119.91;;;23.23;50.40
60854;BME280;48554;50.766;2.900;2022-08-21T09:29:31;101122.59;;;23.23;50.49
60854;BME280;48554;50.766;2.900;2022-08-21T09:31:53;101123.13;;;23.25;50.29
60854;BME280;48554;50.766;2.900;2022-08-21T09:34:28;101120.97;;;23.27;50.48
60854;BME280;48554;50.766;2.900;2022-08-21T09:36:50;101118.28;;;23.27;50.17
60854;BME280;48554;50.766;2.900;2022-08-21T09:39:12;101110.16;;;23.27;50.32
60854;BME280;48554;50.766;2.900;2022-08-21T09:41:36;101110.72;;;23.24;50.72
60854;BME280;48554;50.766;2.900;2022-08-21T09:43:57;101110.72;;;23.24;50.47
60854;BME280;48554;50.766;2.900;2022-08-21T09:46:25;101109.88;;;23.23;50.78
60854;BME280;48554;50.766;2.900;2022-08-21T09:48:51;101114.50;;;23.23;50.35
60854;BME280;48554;50.766;2.900;2022-08-21T09:51:18;101109.09;;;23.18;50.37
60854;BME280;48554;50.766;2.900;2022-08-21T09:53:44;101105.88;;;23.16;50.39
60854;BME280;48554;50.766;2.900;2022-08-21T09:56:17;101109.13;;;23.13;50.47
60854;BME280;48554;50.766;2.900;2022-08-21T09:58:40;101103.72;;;23.13;50.40
60854;BME280;48554;50.766;2.900;2022-08-21T10:01:04;101099.94;;;23.14;50.25
60854;BME280;48554;50.766;2.900;2022-08-21T10:03:25;101106.66;;;23.16;50.43
60854;BME280;48554;50.766;2.900;2022-08-21T10:05:57;101098.84;;;23.20;50.46
60854;BME280;48554;50.766;2.900;2022-08-21T10:08:19;101096.09;;;23.25;50.12
60854;BME280;48554;50.766;2.900;2022-08-21T10:10:40;101095.25;;;23.35;49.67
60854;BME280;48554;50.766;2.900;2022-08-21T10:13:12;101086.31;;;23.39;50.32
60854;BME280;48554;50.766;2.900;2022-08-21T10:18:33;101093.59;;;23.44;49.88
60854;BME280;48554;50.766;2.900;2022-08-21T10:21:01;101091.66;;;23.49;50.38
60854;BME280;48554;50.766;2.900;2022-08-21T10:31:36;101080.88;;;23.44;49.87
60854;BME280;48554;50.766;2.900;2022-08-21T10:37:18;101081.38;;;23.52;49.12
60854;BME280;48554;50.766;2.900;2022-08-21T10:42:44;101081.91;;;23.54;49.32
60854;BME280;48554;50.766;2.900;2022-08-21T10:45:29;101085.16;;;23.50;49.24
60854;BME280;48554;50.766;2.900;2022-08-21T10:47:55;101088.91;;;23.55;48.88
60854;BME280;48554;50.766;2.900;2022-08-21T10:55:51;101095.47;;;23.48;49.96
60854;BME280;48554;50.766;2.900;2022-08-21T10:58:28;101094.38;;;23.44;51.41
60854;BME280;48554;50.766;2.900;2022-08-21T11:00:54;101103.31;;;23.45;50.43
60854;BME280;48554;50.766;2.900;2022-08-21T11:03:17;101094.13;;;23.41;50.37
60854;BME280;48554;50.766;2.900;2022-08-21T11:08:14;101099.53;;;23.41;50.02
60854;BME280;48554;50.766;2.900;2022-08-21T11:10:44;101096.56;;;23.42;49.37
60854;BME280;48554;50.766;2.900;2022-08-21T11:13:12;101094.13;;;23.46;50.14
60854;BME280;48554;50.766;2.900;2022-08-21T11:18:16;101100.38;;;23.41;49.56
60854;BME280;48554;50.766;2.900;2022-08-21T11:20:46;101101.94;;;23.47;49.49
60854;BME280;48554;50.766;2.900;2022-08-21T11:23:39;101114.69;;;23.42;49.93
60854;BME280;48554;50.766;2.900;2022-08-21T11:26:07;101108.47;;;23.41;50.17
60854;BME280;48554;50.766;2.900;2022-08-21T11:28:33;101117.63;;;23.45;49.85
60854;BME280;48554;50.766;2.900;2022-08-21T11:30:58;101107.91;;;23.44;50.27
60854;BME280;48554;50.766;2.900;2022-08-21T11:35:58;101114.38;;;23.43;50.36
60854;BME280;48554;50.766;2.900;2022-08-21T11:38:27;101118.69;;;23.49;49.83
60854;BME280;48554;50.766;2.900;2022-08-21T11:41:13;101115.44;;;23.53;49.15
60854;BME280;48554;50.766;2.900;2022-08-21T11:43:46;101119.78;;;23.54;49.27
60854;BME280;48554;50.766;2.900;2022-08-21T11:51:32;101126.25;;;23.53;49.31
60854;BME280;48554;50.766;2.900;2022-08-21T11:56:31;101123.00;;;23.50;49.37
60854;BME280;48554;50.766;2.900;2022-08-21T11:58:57;101130.59;;;23.54;49.08
60854;BME280;48554;50.766;2.900;2022-08-21T12:01:27;101124.09;;;23.49;49.89
60854;BME280;48554;50.766;2.900;2022-08-21T12:03:56;101126.25;;;23.53;50.07
60854;BME280;48554;50.766;2.900;2022-08-21T12:06:31;101123.00;;;23.50;49.11
60854;BME280;48554;50.766;2.900;2022-08-21T12:09:00;101123.25;;;23.59;49.06
60854;BME280;48554;50.766;2.900;2022-08-21T12:11:26;101123.81;;;23.56;49.12
60854;BME280;48554;50.766;2.900;2022-08-21T12:14:00;101118.66;;;23.55;49.20
60854;BME280;48554;50.766;2.900;2022-08-21T12:16:35;101121.94;;;23.52;49.99
60854;BME280;48554;50.766;2.900;2022-08-21T12:19:11;101118.94;;;23.53;48.90
60854;BME280;48554;50.766;2.900;2022-08-21T12:21:32;101111.91;;;23.57;49.07
60854;BME280;48554;50.766;2.900;2022-08-21T12:26:28;101112.34;;;23.69;48.33
60854;BME280;48554;50.766;2.900;2022-08-21T12:28:48;101117.00;;;23.64;48.64
60854;BME280;48554;50.766;2.900;2022-08-21T12:31:25;101109.41;;;23.66;48.65
60854;BME280;48554;50.766;2.900;2022-08-21T12:33:52;101119.13;;;23.67;48.25
60854;BME280;48554;50.766;2.900;2022-08-21T12:36:22;101114.50;;;23.72;48.53
60854;BME280;48554;50.766;2.900;2022-08-21T12:38:46;101108.88;;;23.64;48.77
60854;BME280;48554;50.766;2.900;2022-08-21T12:41:15;101110.78;;;23.63;48.72
60854;BME280;48554;50.766;2.900;2022-08-21T12:46:00;101105.06;;;23.75;48.59
60854;BME280;48554;50.766;2.900;2022-08-21T12:51:16;101095.91;;;23.66;48.58
60854;BME280;48554;50.766;2.900;2022-08-21T12:53:41;101091.56;;;23.65;48.68
60854;BME280;48554;50.766;2.900;2022-08-21T12:56:09;101087.25;;;23.64;49.42
60854;BME280;48554;50.766;2.900;2022-08-21T12:58:30;101090.16;;;23.72;48.18
60854;BME280;48554;50.766;2.900;2022-08-21T13:01:06;101101.31;;;23.66;48.88
60854;BME280;48554;50.766;2.900;2022-08-21T13:03:27;101088.31;;;23.63;48.81
60854;BME280;48554;50.766;2.900;2022-08-21T13:05:48;101087.75;;;23.71;48.36
60854;BME280;48554;50.766;2.900;2022-08-21T13:08:11;101086.63;;;23.77;48.03
60854;BME280;48554;50.766;2.900;2022-08-21T13:10:33;101086.63;;;23.77;48.29
60854;BME280;48554;50.766;2.900;2022-08-21T13:12:58;101086.94;;;23.70;48.27
60854;BME280;48554;50.766;2.900;2022-08-21T13:15:25;101085.03;;;23.76;48.28
60854;BME280;48554;50.766;2.900;2022-08-21T13:17:48;101082.34;;;23.71;48.18
60854;BME280;48554;50.766;2.900;2022-08-21T13:20:23;101086.63;;;23.77;48.33
60854;BME280;48554;50.766;2.900;2022-08-21T13:22:44;101073.91;;;23.72;48.73
60854;BME280;48554;50.766;2.900;2022-08-21T13:25:10;101075.53;;;23.79;48.31
60854;BME280;48554;50.766;2.900;2022-08-21T13:27:30;101073.09;;;23.77;48.56